createdAt,value
2019-02-27T00:00:43.815Z,20.85
2019-02-27T00:03:12.772Z,18.85
2019-02-27T00:05:43.718Z,19.35
2019-02-27T00:08:17.266Z,19.62
2019-02-27T00:10:47.644Z,18.17
2019-02-27T00:13:18.308Z,17.07
2019-02-27T00:15:49.010Z,16.23
2019-02-27T00:18:23.759Z,18.15
2019-02-27T00:20:51.607Z,16.75
2019-02-27T00:23:24.062Z,15.70
2019-02-27T00:25:54.451Z,15.80
2019-02-27T00:28:24.940Z,16.60
2019-02-27T00:30:55.571Z,17.35
2019-02-27T00:33:28.576Z,15.53
2019-02-27T00:35:58.064Z,17.20
2019-02-27T00:38:31.152Z,16.12
2019-02-27T00:41:01.535Z,18.48
2019-02-27T00:43:33.545Z,14.68
2019-02-27T00:46:05.098Z,16.30
2019-02-27T00:48:35.261Z,15.13
2019-02-27T00:51:05.548Z,25.50
2019-02-27T00:53:35.911Z,27.07
2019-02-27T00:56:06.402Z,21.70
2019-02-27T00:58:36.451Z,22.73
2019-02-27T01:01:07.361Z,19.82
2019-02-27T01:03:37.685Z,17.40
2019-02-27T01:06:08.522Z,17.32
2019-02-27T01:08:39.210Z,15.50
2019-02-27T01:11:09.989Z,14.50
2019-02-27T01:13:40.829Z,14.93
2019-02-27T01:16:11.666Z,14.23
2019-02-27T01:18:42.507Z,15.85
2019-02-27T01:21:13.133Z,13.43
2019-02-27T01:23:44.739Z,15.23
2019-02-27T01:26:15.510Z,13.90
2019-02-27T01:28:45.713Z,13.60
2019-02-27T01:31:15.927Z,13.18
2019-02-27T01:33:53.774Z,14.45
2019-02-27T01:36:24.623Z,12.40
2019-02-27T01:38:56.024Z,14.55
2019-02-27T01:41:26.490Z,15.38
2019-02-27T01:43:57.017Z,15.20
2019-02-27T01:46:28.396Z,17.45
2019-02-27T01:48:59.207Z,15.05
2019-02-27T01:51:29.859Z,15.18
2019-02-27T01:54:01.047Z,13.83
2019-02-27T01:56:31.532Z,14.68
2019-02-27T01:59:01.939Z,13.62
2019-02-27T02:01:32.041Z,14.23
2019-02-27T02:04:02.693Z,13.58
2019-02-27T02:06:33.222Z,13.93
2019-02-27T02:09:32.015Z,13.93
2019-02-27T02:12:03.206Z,13.30
2019-02-27T02:15:01.747Z,13.15
2019-02-27T02:18:18.388Z,14.68
2019-02-27T02:21:01.655Z,13.65
2019-02-27T02:24:15.534Z,11.83
2019-02-27T02:27:22.318Z,12.10
2019-02-27T02:30:29.370Z,11.90
2019-02-27T02:33:30.755Z,12.18
2019-02-27T02:36:51.463Z,14.60
2019-02-27T02:39:54.759Z,13.22
2019-02-27T02:42:41.062Z,12.53
2019-02-27T02:45:53.523Z,11.28
2019-02-27T02:49:10.182Z,12.00
2019-02-27T02:52:23.931Z,12.68
2019-02-27T02:55:24.570Z,11.93
2019-02-27T02:58:28.579Z,10.70
2019-02-27T03:01:55.228Z,11.15
2019-02-27T03:04:58.739Z,11.10
2019-02-27T03:08:21.104Z,13.72
2019-02-27T03:11:19.474Z,13.00
2019-02-27T03:14:34.125Z,13.40
2019-02-27T03:17:29.277Z,12.68
2019-02-27T03:20:36.428Z,12.58
2019-02-27T03:23:52.069Z,13.30
2019-02-27T03:26:55.500Z,15.25
2019-02-27T03:30:06.776Z,17.48
2019-02-27T03:33:27.448Z,15.90
2019-02-27T03:36:36.099Z,16.12
2019-02-27T03:39:39.930Z,15.38
2019-02-27T03:42:40.876Z,14.63
2019-02-27T03:45:42.401Z,14.70
2019-02-27T03:48:36.741Z,14.58
2019-02-27T03:51:32.198Z,14.18
2019-02-27T03:54:20.924Z,14.00
2019-02-27T03:57:18.940Z,14.20
2019-02-27T04:00:30.132Z,14.18
2019-02-27T04:03:19.072Z,13.13
2019-02-27T04:06:26.375Z,13.45
2019-02-27T04:08:57.839Z,13.90
2019-02-27T04:11:28.613Z,13.60
2019-02-27T04:14:03.937Z,12.13
2019-02-27T04:16:32.631Z,13.98
2019-02-27T04:19:04.565Z,14.07
2019-02-27T04:21:34.710Z,14.18
2019-02-27T04:24:05.162Z,13.75
2019-02-27T04:26:41.546Z,12.60
2019-02-27T04:29:08.610Z,13.58
2019-02-27T04:31:39.495Z,14.35
2019-02-27T04:34:11.660Z,14.28
2019-02-27T04:36:46.878Z,13.43
2019-02-27T04:39:14.500Z,15.40
2019-02-27T04:41:45.301Z,13.72
2019-02-27T04:44:16.048Z,14.13
2019-02-27T04:46:46.404Z,12.60
2019-02-27T04:49:16.988Z,13.72
2019-02-27T04:51:48.003Z,14.35
2019-02-27T04:54:19.525Z,14.13
2019-02-27T04:56:49.902Z,13.55
2019-02-27T04:59:20.535Z,14.23
2019-02-27T05:01:51.366Z,13.40
2019-02-27T05:04:24.865Z,13.20
2019-02-27T05:06:58.482Z,14.05
2019-02-27T05:09:31.343Z,13.53
2019-02-27T05:12:01.366Z,12.82
2019-02-27T05:14:31.684Z,13.32
2019-02-27T05:17:04.843Z,12.60
2019-02-27T05:19:45.949Z,13.85
2019-02-27T05:22:21.324Z,13.85
2019-02-27T05:24:54.929Z,13.48
2019-02-27T05:27:28.291Z,12.60
2019-02-27T05:30:00.410Z,13.15
2019-02-27T05:32:30.823Z,12.68
2019-02-27T05:35:04.681Z,13.88
2019-02-27T05:37:47.390Z,12.73
2019-02-27T05:40:17.012Z,13.62
2019-02-27T05:42:48.206Z,14.70
2019-02-27T05:45:18.771Z,13.10
2019-02-27T05:47:52.966Z,13.10
2019-02-27T05:50:23.612Z,13.72
2019-02-27T05:52:53.798Z,15.40
2019-02-27T05:55:26.204Z,15.08
2019-02-27T05:57:59.158Z,14.43
2019-02-27T06:00:38.965Z,18.00
2019-02-27T06:03:09.458Z,16.25
2019-02-27T06:05:49.431Z,15.85
2019-02-27T06:08:14.971Z,17.95
2019-02-27T06:10:49.134Z,13.65
2019-02-27T06:13:23.368Z,16.30
2019-02-27T06:16:03.815Z,14.40
2019-02-27T06:18:34.027Z,14.90
2019-02-27T06:21:13.269Z,16.12
2019-02-27T06:23:44.192Z,15.93
2019-02-27T06:26:19.156Z,16.20
2019-02-27T06:28:48.943Z,16.82
2019-02-27T06:31:18.540Z,15.50
2019-02-27T06:33:48.355Z,17.23
2019-02-27T06:36:18.383Z,17.32
2019-02-27T06:38:48.323Z,16.15
2019-02-27T06:41:18.108Z,16.90
2019-02-27T06:43:47.802Z,15.23
2019-02-27T06:46:20.009Z,14.20
2019-02-27T06:48:48.855Z,13.78
2019-02-27T06:51:18.666Z,16.80
2019-02-27T06:53:48.562Z,15.08
2019-02-27T06:56:18.389Z,14.63
2019-02-27T06:58:50.095Z,15.38
2019-02-27T07:01:19.566Z,14.15
2019-02-27T07:03:49.225Z,15.58
2019-02-27T07:06:21.724Z,13.62
2019-02-27T07:08:50.852Z,13.00
2019-02-27T07:11:20.629Z,11.95
2019-02-27T07:13:50.365Z,14.68
2019-02-27T07:16:20.515Z,13.68
2019-02-27T07:18:51.192Z,15.70
2019-02-27T07:21:20.691Z,14.03
2019-02-27T07:23:50.849Z,12.70
2019-02-27T07:26:20.272Z,13.78
2019-02-27T07:28:50.005Z,14.98
2019-02-27T07:31:19.765Z,13.45
2019-02-27T07:33:49.531Z,13.08
2019-02-27T07:36:19.283Z,13.70
2019-02-27T07:38:48.983Z,12.37
2019-02-27T07:41:20.885Z,13.30
2019-02-27T07:43:49.882Z,12.63
2019-02-27T07:46:22.227Z,14.47
2019-02-27T07:48:51.205Z,14.28
2019-02-27T07:51:23.358Z,14.25
2019-02-27T07:53:53.834Z,13.45
2019-02-27T07:56:23.677Z,14.20
2019-02-27T07:58:53.690Z,12.60
2019-02-27T08:01:23.569Z,13.83
2019-02-27T08:03:53.965Z,13.13
2019-02-27T08:06:23.776Z,13.45
2019-02-27T08:08:56.987Z,13.50
2019-02-27T08:11:26.422Z,14.00
2019-02-27T08:13:56.123Z,14.85
2019-02-27T08:16:25.763Z,12.82
2019-02-27T08:18:55.405Z,18.32
2019-02-27T08:21:24.861Z,15.05
2019-02-27T08:23:55.141Z,13.35
2019-02-27T08:26:25.041Z,13.75
2019-02-27T08:28:54.795Z,15.00
2019-02-27T08:31:27.942Z,13.00
2019-02-27T08:33:55.761Z,15.03
2019-02-27T08:36:25.404Z,14.78
2019-02-27T08:38:55.042Z,15.80
2019-02-27T08:41:24.809Z,16.83
2019-02-27T08:43:54.259Z,15.70
2019-02-27T08:46:43.029Z,16.27
2019-02-27T08:49:12.804Z,16.63
2019-02-27T08:51:42.685Z,16.43
2019-02-27T08:54:12.567Z,17.53
2019-02-27T08:56:44.079Z,16.87
2019-02-27T08:59:13.820Z,17.73
2019-02-27T09:01:44.245Z,17.53
2019-02-27T09:04:13.749Z,17.83
2019-02-27T09:06:43.457Z,15.70
2019-02-27T09:09:15.056Z,17.30
2019-02-27T09:11:44.844Z,17.17
2019-02-27T09:14:14.847Z,16.93
2019-02-27T09:16:44.364Z,17.13
2019-02-27T09:21:43.703Z,15.40
2019-02-27T09:24:13.221Z,13.60
2019-02-27T09:26:42.865Z,11.83
2019-02-27T09:29:12.471Z,13.17
2019-02-27T09:31:50.520Z,11.90
2019-02-27T09:34:13.212Z,13.20
2019-02-27T09:36:43.313Z,13.10
2019-02-27T09:39:13.769Z,12.77
2019-02-27T09:41:46.920Z,13.27
2019-02-27T09:44:14.511Z,12.10
2019-02-27T09:46:43.940Z,13.20
2019-02-27T09:49:13.926Z,13.80
2019-02-27T09:51:43.635Z,15.33
2019-02-27T09:54:13.925Z,14.50
2019-02-27T09:56:43.462Z,13.47
2019-02-27T09:59:13.401Z,13.63
2019-02-27T10:01:43.086Z,14.57
2019-02-27T10:04:12.893Z,15.00
2019-02-27T10:06:42.954Z,14.50
2019-02-27T10:09:17.363Z,14.23
2019-02-27T10:11:46.699Z,14.33
2019-02-27T10:14:17.046Z,14.43
2019-02-27T10:16:46.585Z,12.70
2019-02-27T10:19:17.158Z,13.40
2019-02-27T10:21:47.566Z,12.53
2019-02-27T10:24:17.362Z,13.70
2019-02-27T10:26:47.240Z,12.97
2019-02-27T10:29:18.986Z,13.17
2019-02-27T10:31:48.802Z,14.47
2019-02-27T10:34:18.511Z,12.43
2019-02-27T10:36:48.579Z,13.23
2019-02-27T10:39:18.441Z,12.50
2019-02-27T10:41:50.599Z,12.90
2019-02-27T10:44:19.166Z,12.83
2019-02-27T10:46:48.792Z,13.13
2019-02-27T10:49:21.507Z,11.80
2019-02-27T10:51:50.376Z,12.67
2019-02-27T10:54:20.242Z,11.70
2019-02-27T10:56:50.004Z,10.87
2019-02-27T10:59:22.121Z,10.07
2019-02-27T11:01:50.840Z,10.17
2019-02-27T11:04:20.337Z,9.60
2019-02-27T11:06:49.840Z,9.50
2019-02-27T11:09:29.366Z,10.17
2019-02-27T11:11:58.986Z,9.20
2019-02-27T11:14:31.690Z,9.70
2019-02-27T11:17:02.672Z,9.07
2019-02-27T11:19:31.338Z,9.60
2019-02-27T11:22:01.531Z,9.20
2019-02-27T11:24:31.114Z,8.20
2019-02-27T11:27:00.617Z,8.43
2019-02-27T11:29:30.618Z,9.53
2019-02-27T11:32:00.091Z,8.80
2019-02-27T11:34:29.773Z,8.83
2019-02-27T11:36:59.563Z,7.63
2019-02-27T11:39:30.465Z,8.73
2019-02-27T11:42:00.439Z,8.00
2019-02-27T11:44:30.240Z,7.20
2019-02-27T11:46:59.821Z,7.10
2019-02-27T11:49:29.363Z,7.57
2019-02-27T11:51:59.239Z,7.10
2019-02-27T11:54:28.763Z,7.43
2019-02-27T11:56:58.281Z,7.57
2019-02-27T11:59:27.923Z,6.87
2019-02-27T12:01:57.801Z,6.87
2019-02-27T12:04:27.677Z,6.67
2019-02-27T12:06:57.283Z,7.67
2019-02-27T12:09:26.787Z,7.63
2019-02-27T12:11:56.723Z,8.00
2019-02-27T12:14:26.360Z,7.63
2019-02-27T12:16:55.759Z,7.37
2019-02-27T12:19:25.641Z,8.03
2019-02-27T12:21:59.533Z,7.60
2019-02-27T12:24:26.840Z,7.90
2019-02-27T12:26:56.416Z,6.90
2019-02-27T12:29:26.535Z,6.57
2019-02-27T12:31:57.085Z,6.97
2019-02-27T12:34:26.777Z,7.50
2019-02-27T12:36:56.758Z,8.00
2019-02-27T12:39:26.601Z,7.50
2019-02-27T12:41:56.484Z,6.77
2019-02-27T12:44:25.936Z,6.90
2019-02-27T12:46:55.399Z,7.37
2019-02-27T12:49:25.164Z,8.50
2019-02-27T12:51:55.158Z,8.00
2019-02-27T12:54:26.829Z,6.83
2019-02-27T12:56:56.245Z,6.50
2019-02-27T12:59:26.003Z,6.80
2019-02-27T13:01:55.880Z,7.37
2019-02-27T13:04:25.762Z,6.40
2019-02-27T13:06:55.518Z,8.00
2019-02-27T13:09:25.314Z,7.27
2019-02-27T13:11:54.861Z,6.77
2019-02-27T13:14:24.435Z,6.60
2019-02-27T13:16:54.079Z,6.37
2019-02-27T13:19:23.748Z,6.40
2019-02-27T13:21:55.020Z,7.50
2019-02-27T13:24:25.012Z,6.63
2019-02-27T13:26:55.282Z,6.53
2019-02-27T13:29:25.279Z,6.40
2019-02-27T13:31:56.572Z,6.40
2019-02-27T13:34:25.800Z,6.20
2019-02-27T13:36:55.761Z,5.63
2019-02-27T13:39:26.252Z,5.80
2019-02-27T13:41:56.604Z,6.50
2019-02-27T13:44:25.827Z,5.30
2019-02-27T13:46:57.012Z,5.17
2019-02-27T13:49:26.660Z,5.30
2019-02-27T13:51:56.306Z,5.30
2019-02-27T13:54:26.120Z,4.87
2019-02-27T13:56:55.725Z,6.27
2019-02-27T13:59:25.434Z,5.77
2019-02-27T14:01:55.055Z,5.80
2019-02-27T14:04:25.160Z,5.57
2019-02-27T14:06:54.661Z,5.40
2019-02-27T14:09:24.320Z,5.10
2019-02-27T14:11:58.445Z,5.60
2019-02-27T14:14:25.157Z,4.80
2019-02-27T14:16:55.135Z,5.37
2019-02-27T14:19:24.801Z,5.70
2019-02-27T14:21:56.088Z,4.53
2019-02-27T14:24:26.117Z,4.93
2019-02-27T14:26:55.695Z,4.70
2019-02-27T14:29:26.080Z,4.67
2019-02-27T14:31:56.841Z,4.47
2019-02-27T14:34:27.433Z,5.17
2019-02-27T14:36:57.719Z,4.80
2019-02-27T14:39:29.687Z,3.87
2019-02-27T14:41:58.879Z,4.03
2019-02-27T14:44:31.210Z,4.20
2019-02-27T14:47:00.077Z,3.97
2019-02-27T14:49:30.079Z,3.83
2019-02-27T14:52:00.066Z,4.47
2019-02-27T14:54:29.887Z,3.80
2019-02-27T14:56:59.719Z,3.50
2019-02-27T14:59:31.322Z,3.00
2019-02-27T15:02:00.745Z,3.63
2019-02-27T15:04:32.296Z,4.60
2019-02-27T15:07:01.643Z,4.43
2019-02-27T15:09:33.975Z,5.27
2019-02-27T15:12:02.715Z,5.70
2019-02-27T15:14:32.461Z,7.10
2019-02-27T15:17:02.357Z,4.73
2019-02-27T15:19:32.121Z,5.03
2019-02-27T15:22:01.516Z,4.33
2019-02-27T15:24:31.956Z,4.60
2019-02-27T15:27:08.889Z,3.40
2019-02-27T15:29:39.584Z,4.30
2019-02-27T15:32:09.437Z,6.63
2019-02-27T15:34:38.869Z,5.57
2019-02-27T15:37:08.598Z,5.40
2019-02-27T15:39:38.046Z,7.33
2019-02-27T15:42:09.513Z,5.93
2019-02-27T15:44:39.081Z,5.60
2019-02-27T15:47:08.650Z,5.67
2019-02-27T15:49:46.100Z,5.60
2019-02-27T15:52:15.675Z,5.30
2019-02-27T15:54:45.437Z,5.93
2019-02-27T15:57:18.380Z,5.33
2019-02-27T15:59:48.106Z,5.47
2019-02-27T16:02:17.599Z,5.07
2019-02-27T16:04:47.114Z,4.57
2019-02-27T16:07:26.040Z,4.97
2019-02-27T16:09:55.849Z,6.10
2019-02-27T16:12:26.457Z,5.77
2019-02-27T16:14:56.234Z,5.43
2019-02-27T16:17:31.126Z,6.00
2019-02-27T16:20:05.715Z,6.13
2019-02-27T16:22:35.356Z,6.17
2019-02-27T16:25:05.238Z,5.60
2019-02-27T16:27:35.668Z,5.93
2019-02-27T16:30:07.039Z,6.60
2019-02-27T16:32:36.693Z,7.03
2019-02-27T16:35:07.876Z,8.27
2019-02-27T16:37:37.758Z,7.70
2019-02-27T16:40:08.236Z,8.73
2019-02-27T16:42:39.182Z,8.00
2019-02-27T16:45:11.476Z,7.37
2019-02-27T16:47:41.413Z,7.60
2019-02-27T16:50:14.001Z,8.17
2019-02-27T16:52:43.759Z,8.90
2019-02-27T16:55:39.449Z,8.97
2019-02-27T16:58:08.796Z,8.60
2019-02-27T17:00:39.315Z,9.03
2019-02-27T17:03:12.963Z,10.60
2019-02-27T17:05:43.222Z,10.57
2019-02-27T17:08:13.692Z,9.60
2019-02-27T17:10:45.582Z,10.30
2019-02-27T17:13:16.021Z,11.00
2019-02-27T17:15:46.758Z,9.03
2019-02-27T17:18:16.987Z,8.97
2019-02-27T17:20:47.753Z,10.70
2019-02-27T17:23:18.221Z,8.80
2019-02-27T17:25:52.898Z,8.40
2019-02-27T17:28:20.551Z,9.00
2019-02-27T17:30:53.964Z,8.30
2019-02-27T17:33:23.941Z,9.93
2019-02-27T17:35:58.542Z,8.33
2019-02-27T17:38:25.186Z,8.33
2019-02-27T17:40:54.785Z,9.40
2019-02-27T17:43:29.543Z,9.50
2019-02-27T17:45:58.636Z,14.10
2019-02-27T17:48:29.358Z,21.33
2019-02-27T17:50:59.121Z,11.10
2019-02-27T17:53:28.874Z,16.90
2019-02-27T17:55:58.635Z,17.13
2019-02-27T17:58:31.882Z,17.90
2019-02-27T18:01:02.719Z,28.73
2019-02-27T18:03:32.598Z,13.67
2019-02-27T18:06:02.360Z,16.47
2019-02-27T18:08:32.663Z,10.97
2019-02-27T18:11:05.728Z,11.70
2019-02-27T18:13:37.644Z,9.50
2019-02-27T18:16:08.124Z,11.90
2019-02-27T18:18:43.989Z,9.97
2019-02-27T18:21:16.668Z,10.30
2019-02-27T18:23:47.974Z,10.30
2019-02-27T18:26:18.098Z,10.30
2019-02-27T18:28:49.101Z,11.47
2019-02-27T18:31:19.039Z,11.80
2019-02-27T18:33:55.277Z,11.37
2019-02-27T18:36:25.437Z,11.27
2019-02-27T18:42:32.134Z,10.73
2019-02-27T18:45:02.720Z,11.80
2019-02-27T18:47:35.179Z,10.60
2019-02-27T18:50:05.356Z,12.80
2019-02-27T18:52:38.198Z,12.37
2019-02-27T18:55:08.496Z,12.50
2019-02-27T18:57:47.159Z,13.60
2019-02-27T19:00:20.885Z,13.20
2019-02-27T19:02:53.661Z,12.73
2019-02-27T19:05:24.592Z,12.47
2019-02-27T19:07:57.708Z,12.63
2019-02-27T19:10:27.561Z,13.03
2019-02-27T19:13:01.073Z,11.47
2019-02-27T19:15:32.997Z,13.77
2019-02-27T19:18:06.563Z,12.93
2019-02-27T19:20:38.013Z,19.97
2019-02-27T19:23:10.297Z,33.40
2019-02-27T19:25:40.168Z,31.17
2019-02-27T19:28:10.555Z,28.57
2019-02-27T19:30:41.649Z,19.60
2019-02-27T19:33:13.160Z,14.93
2019-02-27T19:35:43.282Z,15.30
2019-02-27T19:38:13.818Z,12.88
2019-02-27T19:40:46.278Z,12.73
2019-02-27T19:43:18.192Z,12.68
2019-02-27T19:45:48.200Z,13.93
2019-02-27T19:48:17.965Z,13.80
2019-02-27T19:50:48.073Z,13.70
2019-02-27T19:53:17.953Z,12.58
2019-02-27T19:55:47.475Z,13.00
2019-02-27T19:58:18.315Z,11.50
2019-02-27T20:00:48.604Z,12.43
2019-02-27T20:03:18.521Z,12.60
2019-02-27T20:05:50.664Z,11.80
2019-02-27T20:08:19.264Z,12.20
2019-02-27T20:10:49.107Z,14.70
2019-02-27T20:13:18.782Z,14.15
2019-02-27T20:15:49.990Z,13.20
2019-02-27T20:18:23.382Z,14.58
2019-02-27T20:20:56.633Z,14.07
2019-02-27T20:23:26.611Z,13.00
2019-02-27T20:25:56.964Z,15.80
2019-02-27T20:28:29.033Z,15.80
2019-02-27T20:30:58.113Z,15.73
2019-02-27T20:33:28.157Z,14.10
2019-02-27T20:35:58.157Z,16.70
2019-02-27T20:38:28.514Z,17.47
2019-02-27T20:40:58.529Z,17.67
2019-02-27T20:43:29.423Z,24.40
2019-02-27T20:46:00.202Z,19.37
2019-02-27T20:48:32.353Z,29.03
2019-02-27T20:51:02.701Z,19.47
2019-02-27T20:53:33.678Z,29.20
2019-02-27T20:56:03.727Z,16.70
2019-02-27T20:58:34.396Z,20.27
2019-02-27T21:01:13.865Z,14.05
2019-02-27T21:03:44.179Z,14.25
2019-02-27T21:06:14.365Z,14.45
2019-02-27T21:08:44.769Z,13.55
2019-02-27T21:11:15.300Z,11.95
2019-02-27T21:13:49.383Z,12.73
2019-02-27T21:16:17.120Z,12.98
2019-02-27T21:18:47.131Z,13.30
2019-02-27T21:21:19.805Z,13.38
2019-02-27T21:23:49.322Z,12.20
2019-02-27T21:26:20.030Z,11.83
2019-02-27T21:28:58.084Z,12.65
2019-02-27T21:31:27.650Z,13.50
2019-02-27T21:33:58.392Z,14.28
2019-02-27T21:36:28.592Z,12.05
2019-02-27T21:38:58.871Z,12.85
2019-02-27T21:41:29.031Z,13.38
2019-02-27T21:43:58.723Z,13.32
2019-02-27T21:46:29.108Z,13.40
2019-02-27T21:48:59.383Z,13.65
2019-02-27T21:51:30.126Z,14.10
2019-02-27T21:54:03.631Z,14.73
2019-02-27T21:56:32.371Z,13.45
2019-02-27T21:59:04.656Z,15.10
2019-02-27T22:01:34.721Z,15.13
2019-02-27T22:04:05.004Z,14.25
2019-02-27T22:06:50.616Z,15.18
2019-02-27T22:09:21.675Z,16.07
2019-02-27T22:11:51.875Z,15.18
2019-02-27T22:14:25.073Z,14.85
2019-02-27T22:16:55.186Z,15.38
2019-02-27T22:19:25.728Z,17.15
2019-02-27T22:21:57.585Z,16.17
2019-02-27T22:24:27.642Z,16.30
2019-02-27T22:26:58.397Z,20.32
2019-02-27T22:29:28.643Z,19.27
2019-02-27T22:32:01.547Z,18.95
2019-02-27T22:34:32.026Z,17.67
2019-02-27T22:37:26.649Z,19.80
2019-02-27T22:40:12.769Z,19.00
2019-02-27T22:42:30.804Z,17.15
2019-02-27T22:45:04.169Z,17.00
2019-02-27T22:47:34.221Z,18.35
2019-02-27T22:50:06.895Z,17.82
2019-02-27T22:52:36.848Z,16.35
2019-02-27T22:55:10.753Z,15.70
2019-02-27T22:57:41.159Z,15.03
2019-02-27T23:00:29.837Z,16.15
2019-02-27T23:03:02.289Z,16.32
2019-02-27T23:05:35.237Z,16.65
2019-02-27T23:08:09.130Z,16.75
2019-02-27T23:10:38.891Z,16.35
2019-02-27T23:13:12.652Z,16.30
2019-02-27T23:15:45.680Z,16.80
2019-02-27T23:18:15.994Z,16.57
2019-02-27T23:20:46.756Z,17.92
2019-02-27T23:23:18.607Z,19.50
2019-02-27T23:25:50.778Z,17.70
2019-02-27T23:28:21.954Z,21.42
2019-02-27T23:30:52.485Z,21.00
2019-02-27T23:33:25.901Z,19.87
2019-02-27T23:35:56.280Z,18.98
2019-02-27T23:38:26.977Z,19.70
2019-02-27T23:40:57.317Z,18.42
2019-02-27T23:43:27.731Z,20.02
2019-02-27T23:45:58.601Z,20.80
2019-02-27T23:48:29.031Z,19.12
2019-02-27T23:51:02.117Z,19.42
2019-02-27T23:53:33.772Z,21.20
2019-02-27T23:56:04.058Z,20.60
2019-02-27T23:58:35.676Z,21.33
